Time;durP1;ratioP1;P1;durP2;ratioP2;P2;SDS_P1;SDS_P2;PMS_P1;PMS_P2;Temp;Humidity;BMP_temperature;BMP_pressure;BME280_temperature;BME280_humidity;BME280_pressure;Samples;Min_cycle;Max_cycle;Signal;HPM_P1;HPM_P2
2022/11/24 00:00:05;;;;;;;28.20;3.80;;;;;;;5.90;100.00;100305.03;5012037;28;20112;-77
2022/11/24 00:02:30;;;;;;;19.48;3.58;;;;;;;5.86;100.00;100308.50;5012779;28;20502;-77
2022/11/24 00:04:56;;;;;;;13.02;2.70;;;;;;;5.86;100.00;100308.50;5010754;28;20026;-77
2022/11/24 00:07:21;;;;;;;21.30;3.60;;;;;;;5.89;100.00;100309.31;5012588;28;20026;-77
2022/11/24 00:09:46;;;;;;;17.95;2.92;;;;;;;5.92;100.00;100311.88;5012390;28;20030;-77
2022/11/24 00:12:12;;;;;;;17.20;2.90;;;;;;;5.93;100.00;100315.28;5010131;28;20037;-77
2022/11/24 00:14:37;;;;;;;20.20;3.83;;;;;;;5.92;100.00;100316.16;5012187;28;20033;-77
2022/11/24 00:17:03;;;;;;;17.98;2.83;;;;;;;5.92;100.00;100319.59;5012559;28;20072;-77
2022/11/24 00:19:28;;;;;;;19.70;3.50;;;;;;;5.89;100.00;100317.03;4994632;28;20033;-77
2022/11/24 00:21:54;;;;;;;21.75;3.20;;;;;;;5.89;100.00;100326.47;5012480;28;20559;-77
2022/11/24 00:24:19;;;;;;;21.10;3.72;;;;;;;5.86;100.00;100323.91;5011563;28;20037;-77
2022/11/24 00:26:44;;;;;;;17.85;3.00;;;;;;;5.88;100.00;100327.34;5011788;28;20028;-78
2022/11/24 00:29:10;;;;;;;17.92;2.75;;;;;;;5.87;100.00;100330.75;5011993;28;20034;-77
2022/11/24 00:31:38;;;;;;;20.67;3.00;;;;;;;5.86;100.00;100339.34;4997035;28;20033;-77
2022/11/24 00:34:06;;;;;;;13.13;2.58;;;;;;;5.84;100.00;100330.78;5011432;28;20044;-77
2022/11/24 00:36:34;;;;;;;25.35;3.05;;;;;;;5.84;100.00;100334.22;5012170;28;20076;-77
2022/11/24 00:39:03;;;;;;;22.67;2.75;;;;;;;5.85;100.00;100335.94;5012041;28;20029;-77
2022/11/24 00:41:29;;;;;;;15.82;2.83;;;;;;;5.86;100.00;100323.91;5011196;28;20053;-78
2022/11/24 00:43:56;;;;;;;22.02;2.65;;;;;;;5.88;100.00;100333.34;5011950;28;20083;-77
2022/11/24 00:46:22;;;;;;;19.50;2.72;;;;;;;5.94;100.00;100333.25;5010179;28;20044;-77
2022/11/24 00:48:48;;;;;;;16.80;2.63;;;;;;;5.97;100.00;100334.94;5010936;28;20446;-77
2022/11/24 00:51:15;;;;;;;21.55;2.88;;;;;;;6.00;100.00;100337.50;5010833;28;20480;-77
2022/11/24 00:53:41;;;;;;;17.45;2.58;;;;;;;5.97;100.00;100336.66;5010967;28;20037;-77
2022/11/24 00:56:07;;;;;;;26.90;2.78;;;;;;;5.93;100.00;100339.28;5008150;28;20033;-77
2022/11/24 00:58:34;;;;;;;21.05;3.25;;;;;;;5.90;100.00;100347.03;4986741;28;20484;-77
2022/11/24 01:01:09;;;;;;;14.93;2.88;;;;;;;5.87;100.00;100339.34;4993239;28;20453;-77
2022/11/24 01:03:35;;;;;;;13.43;2.60;;;;;;;5.83;100.00;100336.81;5011071;28;20030;-77
2022/11/24 01:06:08;;;;;;;17.92;2.38;;;;;;;5.82;100.00;100345.38;5011535;28;20404;-77
2022/11/24 01:08:37;;;;;;;20.73;2.63;;;;;;;5.80;100.00;100340.25;4991189;28;20029;-77
2022/11/24 01:11:12;;;;;;;24.90;2.78;;;;;;;5.83;100.00;100352.22;5010554;28;20041;-77
2022/11/24 01:13:39;;;;;;;21.75;3.42;;;;;;;5.82;100.00;100355.66;5006536;28;20029;-77
2022/11/24 01:16:05;;;;;;;14.60;2.10;;;;;;;5.80;100.00;100358.25;4997166;28;20461;-77
2022/11/24 01:18:30;;;;;;;18.75;2.60;;;;;;;5.76;100.00;100363.47;5010452;28;20033;-77
2022/11/24 01:20:56;;;;;;;17.35;2.60;;;;;;;5.75;100.00;100364.34;5011659;28;20030;-77
2022/11/24 01:23:21;;;;;;;15.02;2.10;;;;;;;5.70;100.00;100364.41;5010500;28;20086;-77
2022/11/24 01:25:46;;;;;;;16.75;2.63;;;;;;;5.69;100.00;100366.97;5011519;28;20052;-77
2022/11/24 01:28:13;;;;;;;14.20;2.20;;;;;;;5.70;100.00;100361.81;5009730;28;20065;-77
2022/11/24 01:30:38;;;;;;;18.27;2.10;;;;;;;5.74;100.00;100368.63;5010432;28;20092;-77
2022/11/24 01:33:04;;;;;;;13.20;2.25;;;;;;;5.78;100.00;100361.72;5010432;28;20045;-77
2022/11/24 01:35:29;;;;;;;22.02;2.58;;;;;;;5.84;100.00;100366.81;5011214;28;20057;-77
2022/11/24 01:37:54;;;;;;;18.98;2.45;;;;;;;5.85;100.00;100366.78;5009537;28;20089;-77
2022/11/24 01:40:20;;;;;;;14.38;2.25;;;;;;;5.82;100.00;100368.53;5011401;28;20026;-77
2022/11/24 01:42:49;;;;;;;19.15;2.50;;;;;;;5.78;100.00;100372.03;4995515;28;20044;-77
2022/11/24 01:45:26;;;;;;;16.92;2.40;;;;;;;5.76;100.00;100379.75;5010406;28;20037;-77
2022/11/24 01:47:52;;;;;;;16.50;2.65;;;;;;;5.76;100.00;100381.47;5010379;28;20030;-77
2022/11/24 01:50:17;;;;;;;22.45;2.42;;;;;;;5.69;100.00;100378.13;5010486;28;20026;-77
2022/11/24 01:52:49;;;;;;;15.23;2.70;;;;;;;5.68;100.00;100385.84;5011069;28;20026;-77
2022/11/24 01:55:20;;;;;;;17.48;2.13;;;;;;;5.66;100.00;100398.72;5010850;28;20037;-77
2022/11/24 01:57:58;;;;;;;14.18;2.50;;;;;;;5.68;100.00;100396.97;5010526;28;20074;-77
2022/11/24 02:00:24;;;;;;;20.75;2.70;;;;;;;5.72;100.00;100393.53;5009069;28;20038;-77
2022/11/24 02:02:49;;;;;;;16.90;2.80;;;;;;;5.73;100.00;100399.53;5001943;28;20022;-77
2022/11/24 02:05:25;;;;;;;19.67;2.53;;;;;;;5.75;100.00;100401.19;5009541;28;20054;-77
2022/11/24 02:07:54;;;;;;;20.15;2.53;;;;;;;5.80;100.00;100396.81;5010565;28;20030;-77
2022/11/24 02:10:20;;;;;;;15.57;2.50;;;;;;;5.87;100.00;100400.19;5010169;28;20397;-77
2022/11/24 02:12:49;;;;;;;25.98;2.80;;;;;;;5.92;100.00;100411.31;5009734;28;20032;-77
2022/11/24 02:15:16;;;;;;;20.30;2.67;;;;;;;5.91;100.00;100409.63;5010023;28;20041;-77
2022/11/24 02:17:42;;;;;;;16.38;2.58;;;;;;;5.90;100.00;100408.75;5010672;28;20045;-77
2022/11/24 02:20:09;;;;;;;21.00;2.97;;;;;;;5.90;100.00;100408.75;5011187;28;20388;-77
2022/11/24 02:23:29;;;;;;;27.17;3.70;;;;;;;5.95;100.00;100413.84;4996254;28;20204;-77
2022/11/24 02:26:24;;;;;;;19.55;3.05;;;;;;;5.95;100.00;100416.41;4954077;29;20027;-77
2022/11/24 02:28:49;;;;;;;16.17;2.55;;;;;;;5.89;100.00;100413.91;4994979;28;20496;-77
2022/11/24 02:31:15;;;;;;;16.95;2.80;;;;;;;5.85;100.00;100419.94;5013636;28;20049;-77
2022/11/24 02:33:40;;;;;;;15.63;3.33;;;;;;;5.81;100.00;100419.09;5013605;28;20030;-77
2022/11/24 02:36:06;;;;;;;20.90;2.72;;;;;;;5.78;100.00;100426.88;5014183;28;20022;-77
2022/11/24 02:38:33;;;;;;;23.00;2.83;;;;;;;5.74;100.00;100426.91;5013208;28;20048;-77
2022/11/24 02:41:07;;;;;;;18.60;2.63;;;;;;;5.70;100.00;100420.09;5014319;28;20030;-77
2022/11/24 02:43:38;;;;;;;20.48;3.42;;;;;;;5.65;100.00;100419.31;4993813;28;20037;-77
2022/11/24 02:46:03;;;;;;;21.23;2.75;;;;;;;5.64;100.00;100425.31;5014089;28;20511;-77
2022/11/24 02:48:29;;;;;;;15.80;2.92;;;;;;;5.61;100.00;100426.19;5013118;28;20037;-77
2022/11/24 02:50:54;;;;;;;20.48;3.13;;;;;;;5.63;100.00;100424.47;5005510;28;20118;-77
2022/11/24 02:53:19;;;;;;;18.17;2.90;;;;;;;5.63;100.00;100428.75;5013498;28;20084;-77
2022/11/24 02:55:45;;;;;;;20.92;2.78;;;;;;;5.64;100.00;100427.88;5014151;28;20515;-77
2022/11/24 02:58:11;;;;;;;23.88;3.03;;;;;;;5.65;100.00;100427.03;5011231;28;20524;-77
2022/11/24 03:00:36;;;;;;;18.55;3.25;;;;;;;5.70;100.00;100425.25;5013868;28;20026;-77
2022/11/24 03:03:02;;;;;;;17.55;2.72;;;;;;;5.76;100.00;100430.31;5011679;28;20112;-77
2022/11/24 03:05:27;;;;;;;25.23;3.22;;;;;;;5.82;100.00;100425.97;5013725;28;20092;-77
2022/11/24 03:07:53;;;;;;;15.07;2.70;;;;;;;5.85;100.00;100428.50;5013521;28;20034;-77
2022/11/24 03:10:18;;;;;;;22.45;2.47;;;;;;;5.90;100.00;100433.63;5013670;28;20104;-77
2022/11/24 03:12:43;;;;;;;22.27;2.90;;;;;;;5.95;100.00;100431.84;5013516;28;20045;-77
2022/11/24 03:15:10;;;;;;;26.95;3.20;;;;;;;6.01;100.00;100434.34;5013052;28;20022;-77
2022/11/24 03:17:35;;;;;;;23.35;2.70;;;;;;;6.09;100.00;100439.41;5011868;28;20404;-77
2022/11/24 03:20:01;;;;;;;25.50;3.58;;;;;;;6.08;100.00;100432.56;5013150;28;20495;-77
2022/11/24 03:22:27;;;;;;;18.58;3.00;;;;;;;6.14;100.00;100440.22;4995056;28;20113;-77
2022/11/24 03:24:52;;;;;;;17.50;2.92;;;;;;;6.08;100.00;100442.84;5012545;28;20101;-77
2022/11/24 03:27:18;;;;;;;21.38;2.78;;;;;;;6.03;100.00;100440.34;5013078;28;20116;-77
2022/11/24 03:29:43;;;;;;;23.60;2.75;;;;;;;6.05;100.00;100446.31;5013732;28;20049;-77
2022/11/24 03:32:08;;;;;;;21.20;2.75;;;;;;;6.00;100.00;100434.38;5011139;28;20108;-77
2022/11/24 03:34:34;;;;;;;19.60;2.90;;;;;;;6.02;100.00;100448.06;5013783;28;20113;-77
2022/11/24 03:36:59;;;;;;;21.50;2.78;;;;;;;6.07;100.00;100452.31;5012503;28;20053;-77
2022/11/24 03:39:25;;;;;;;18.65;3.25;;;;;;;6.15;100.00;100453.03;5011807;28;20029;-77
2022/11/24 03:41:50;;;;;;;21.60;3.00;;;;;;;6.23;100.00;100451.25;5012775;28;20365;-77
2022/11/24 03:44:16;;;;;;;21.60;3.00;;;;;;;6.31;100.00;100458.88;5013064;28;20080;-77
2022/11/24 03:46:42;;;;;;;21.35;3.13;;;;;;;6.33;100.00;100450.28;5011750;28;20396;-77
2022/11/24 03:49:07;;;;;;;23.80;3.50;;;;;;;6.35;100.00;100456.22;5011683;28;20519;-77
2022/11/24 03:51:32;;;;;;;20.23;2.72;;;;;;;6.36;100.00;100454.50;5012895;28;20038;-77
2022/11/24 03:53:58;;;;;;;27.25;3.30;;;;;;;6.38;100.00;100449.34;4994852;28;20049;-77
2022/11/24 03:56:23;;;;;;;21.00;3.72;;;;;;;6.40;100.00;100453.63;5012951;28;20495;-77
2022/11/24 03:58:48;;;;;;;22.08;3.30;;;;;;;6.41;100.00;100454.47;5012735;28;20392;-77
2022/11/24 04:01:14;;;;;;;18.52;2.75;;;;;;;6.47;100.00;100457.81;5012797;28;20030;-77
2022/11/24 04:03:39;;;;;;;17.95;2.92;;;;;;;6.48;100.00;100463.81;5010505;28;20024;-77
2022/11/24 04:06:05;;;;;;;24.55;3.00;;;;;;;6.52;100.00;100460.31;5012702;28;20058;-76
2022/11/24 04:08:30;;;;;;;26.92;3.28;;;;;;;6.58;100.00;100471.38;5011675;28;20033;-77
2022/11/24 04:10:56;;;;;;;22.88;3.10;;;;;;;6.64;100.00;100466.16;5012870;28;20026;-76
2022/11/24 04:13:23;;;;;;;23.98;3.53;;;;;;;6.65;100.00;100459.28;5012882;28;20494;-76
2022/11/24 04:15:49;;;;;;;21.08;2.97;;;;;;;6.65;100.00;100461.84;5012795;28;20057;-77
2022/11/24 04:18:15;;;;;;;27.40;3.47;;;;;;;6.67;100.00;100471.28;5010922;28;20034;-77
2022/11/24 04:20:41;;;;;;;17.40;2.95;;;;;;;6.65;100.00;100472.16;5012734;28;20097;-76
2022/11/24 04:23:07;;;;;;;26.17;3.20;;;;;;;6.64;100.00;100467.88;5011712;28;20026;-76
2022/11/24 04:25:32;;;;;;;21.80;3.35;;;;;;;6.68;100.00;100477.28;5011881;28;20033;-77
2022/11/24 04:27:58;;;;;;;22.17;2.97;;;;;;;6.72;100.00;100473.78;5012627;28;20026;-76
2022/11/24 04:30:25;;;;;;;20.67;3.33;;;;;;;6.74;100.00;100472.88;5012523;28;20025;-76
2022/11/24 04:32:51;;;;;;;21.40;3.20;;;;;;;6.82;100.00;100490.81;5010211;28;20496;-76
2022/11/24 04:35:16;;;;;;;22.40;3.50;;;;;;;6.88;100.00;100482.13;5011536;28;20048;-76
2022/11/24 04:37:42;;;;;;;15.77;2.65;;;;;;;6.94;100.00;100518.13;5012289;28;20540;-77
2022/11/24 04:40:09;;;;;;;10.88;2.00;;;;;;;6.91;100.00;100508.69;5011634;28;20026;-77
2022/11/24 04:42:35;;;;;;;12.20;2.00;;;;;;;6.89;100.00;100522.50;5011571;28;20029;-77
2022/11/24 04:45:00;;;;;;;3.53;1.35;;;;;;;6.84;100.00;100525.13;5012087;28;20104;-77
2022/11/24 04:47:26;;;;;;;7.72;1.52;;;;;;;6.75;100.00;100523.50;5010753;28;20038;-77
2022/11/24 04:49:52;;;;;;;6.65;1.73;;;;;;;6.67;100.00;100524.50;5010612;28;20036;-77
2022/11/24 04:52:20;;;;;;;6.32;1.48;;;;;;;6.63;100.00;100523.66;5009243;28;20022;-77
2022/11/24 04:54:46;;;;;;;9.00;1.75;;;;;;;6.58;100.00;100522.88;5010971;28;20444;-78
2022/11/24 04:57:20;;;;;;;6.18;1.50;;;;;;;6.55;100.00;100532.38;5011467;28;20382;-78
2022/11/24 04:59:46;;;;;;;5.40;1.83;;;;;;;6.52;100.00;100532.41;5011855;28;20034;-78
2022/11/24 05:02:12;;;;;;;8.23;1.73;;;;;;;6.50;100.00;100529.84;5002062;28;20022;-78
2022/11/24 05:04:37;;;;;;;10.15;2.00;;;;;;;6.49;100.00;100535.84;5011396;28;20025;-78
2022/11/24 05:07:03;;;;;;;11.35;2.25;;;;;;;6.46;100.00;100535.91;5007867;28;20050;-79
2022/11/24 05:09:28;;;;;;;12.07;2.30;;;;;;;6.45;100.00;100541.06;5011477;28;20095;-79
2022/11/24 05:11:53;;;;;;;11.93;2.33;;;;;;;6.46;100.00;100542.78;5011420;28;20050;-78
2022/11/24 05:14:19;;;;;;;12.50;2.30;;;;;;;6.47;100.00;100540.19;5011515;28;20502;-79
2022/11/24 05:16:44;;;;;;;11.38;2.28;;;;;;;6.50;100.00;100542.72;5010432;28;20034;-79
2022/11/24 05:19:09;;;;;;;13.10;2.50;;;;;;;6.51;100.00;100541.00;5011761;28;20029;-79
2022/11/24 05:21:35;;;;;;;12.57;2.30;;;;;;;6.51;100.00;100549.56;5010271;28;20403;-79
2022/11/24 05:24:00;;;;;;;10.40;2.38;;;;;;;6.53;100.00;100562.44;5008852;28;20040;-79
2022/11/24 05:26:26;;;;;;;10.30;2.22;;;;;;;6.53;100.00;100550.41;5010922;28;20029;-79
2022/11/24 05:28:51;;;;;;;11.35;2.50;;;;;;;6.56;100.00;100559.81;5011418;28;20029;-79
2022/11/24 05:31:17;;;;;;;18.95;2.42;;;;;;;6.55;100.00;100558.97;4993530;28;20026;-79
2022/11/24 05:33:42;;;;;;;16.42;2.67;;;;;;;6.61;100.00;100563.22;5010696;28;20029;-79
2022/11/24 05:36:51;;;;;;;19.15;2.28;;;;;;;6.60;100.00;100562.34;5010429;28;20399;-79
2022/11/24 05:38:54;;;;;;;13.95;2.33;;;;;;;6.63;100.00;100556.28;5011240;28;20038;-79
2022/11/24 05:41:19;;;;;;;15.80;2.60;;;;;;;6.64;100.00;100571.72;5011038;28;20040;-79
2022/11/24 05:43:44;;;;;;;15.07;2.50;;;;;;;6.62;100.00;100570.03;5011002;28;20017;-79
2022/11/24 05:46:09;;;;;;;17.10;2.47;;;;;;;6.63;100.00;100574.31;5011099;28;20037;-79
2022/11/24 05:48:35;;;;;;;12.02;1.92;;;;;;;6.65;100.00;100585.47;4992712;28;20535;-79
2022/11/24 05:51:00;;;;;;;7.60;1.97;;;;;;;6.65;100.00;100580.31;5010131;28;20192;-79
2022/11/24 05:53:26;;;;;;;10.95;2.03;;;;;;;6.65;100.00;100580.31;5007862;28;20757;-79
2022/11/24 05:55:51;;;;;;;10.57;2.03;;;;;;;6.66;100.00;100594.91;5014242;28;20072;-79
2022/11/24 05:58:17;;;;;;;11.10;2.15;;;;;;;6.65;100.00;100594.03;5014957;28;20032;-79
2022/11/24 06:00:42;;;;;;;9.35;1.98;;;;;;;6.64;100.00;100599.19;5014450;28;20104;-79
2022/11/24 06:03:09;;;;;;;13.05;2.13;;;;;;;6.65;100.00;100596.63;5013373;28;20052;-79
2022/11/24 06:05:34;;;;;;;11.18;2.10;;;;;;;6.64;100.00;100597.47;5014281;28;20060;-79
2022/11/24 06:07:59;;;;;;;11.10;2.40;;;;;;;6.69;100.00;100610.28;5014701;28;20030;-79
2022/11/24 06:10:25;;;;;;;12.45;2.00;;;;;;;6.69;100.00;100612.88;5013562;28;20029;-79
2022/11/24 06:12:51;;;;;;;9.45;1.73;;;;;;;6.71;100.00;100616.28;5014696;28;20038;-79
2022/11/24 06:15:16;;;;;;;12.98;2.40;;;;;;;6.68;100.00;100609.47;5015031;28;20026;-79
2022/11/24 06:17:42;;;;;;;10.50;2.17;;;;;;;6.71;100.00;100616.28;5013583;28;20045;-79
2022/11/24 06:20:09;;;;;;;14.23;2.67;;;;;;;6.71;100.00;100626.59;5013818;28;20075;-79
2022/11/24 06:22:35;;;;;;;13.60;2.40;;;;;;;6.71;100.00;100626.59;5014332;28;20419;-79
2022/11/24 06:25:00;;;;;;;16.65;2.92;;;;;;;6.70;100.00;100633.47;5013955;28;20493;-79
2022/11/24 06:27:26;;;;;;;12.18;2.33;;;;;;;6.73;100.00;100633.44;5013031;28;20037;-79
2022/11/24 06:29:51;;;;;;;16.10;2.38;;;;;;;6.73;100.00;100645.47;5006443;28;20018;-79
2022/11/24 06:32:17;;;;;;;15.38;2.60;;;;;;;6.72;100.00;100648.91;5007976;28;20261;-78
2022/11/24 06:34:42;;;;;;;12.15;2.38;;;;;;;6.73;100.00;100664.34;5014654;28;20033;-79
2022/11/24 06:37:07;;;;;;;10.75;3.17;;;;;;;6.75;100.00;100661.78;5014232;28;20156;-79
2022/11/24 06:39:33;;;;;;;14.32;2.50;;;;;;;6.76;100.00;100673.75;5013294;28;20064;-77
2022/11/24 06:41:58;;;;;;;8.77;2.25;;;;;;;6.74;100.00;100671.22;5013731;28;20109;-78
2022/11/24 06:44:24;;;;;;;13.20;2.50;;;;;;;6.72;100.00;100670.38;5003437;28;20117;-78
2022/11/24 06:46:49;;;;;;;8.90;2.38;;;;;;;6.68;100.00;100678.16;5010805;28;20022;-77
2022/11/24 06:49:14;;;;;;;11.65;2.60;;;;;;;6.65;100.00;100693.63;5014154;28;20106;-77
2022/11/24 06:51:40;;;;;;;13.70;2.58;;;;;;;6.60;100.00;100688.53;5008332;28;20076;-77
2022/11/24 06:54:06;;;;;;;16.38;2.72;;;;;;;6.62;100.00;100703.94;5012622;28;20034;-77
2022/11/24 06:56:32;;;;;;;9.43;2.15;;;;;;;6.64;100.00;100699.63;5010105;28;20502;-77
2022/11/24 06:58:57;;;;;;;9.80;2.30;;;;;;;6.64;100.00;100717.66;5013449;28;20037;-77
2022/11/24 07:01:25;;;;;;;9.25;2.50;;;;;;;6.60;100.00;100727.16;5010196;28;20029;-77
2022/11/24 07:03:52;;;;;;;14.80;2.30;;;;;;;6.62;100.00;100732.28;5013624;28;20018;-77
2022/11/24 07:06:18;;;;;;;11.55;2.00;;;;;;;6.61;100.00;100734.03;5008604;28;20085;-77
2022/11/24 07:08:44;;;;;;;11.18;2.17;;;;;;;6.60;100.00;100742.63;5013930;28;20037;-79
2022/11/24 07:11:14;;;;;;;8.50;1.90;;;;;;;6.59;100.00;100747.78;5013880;28;20022;-78
2022/11/24 07:13:40;;;;;;;10.45;2.20;;;;;;;6.54;100.00;100749.53;5012205;28;20038;-78
2022/11/24 07:16:21;;;;;;;9.63;1.88;;;;;;;6.52;100.00;100753.84;5011911;28;20033;-78
2022/11/24 07:18:50;;;;;;;11.40;2.00;;;;;;;6.49;100.00;100759.84;5012514;28;20030;-78
2022/11/24 07:21:16;;;;;;;8.90;1.70;;;;;;;6.47;100.00;100771.06;5018881;28;20088;-78
2022/11/24 07:23:41;;;;;;;11.70;2.17;;;;;;;6.42;100.00;100775.38;5011844;28;20416;-78
2022/11/24 07:26:08;;;;;;;9.25;1.70;;;;;;;6.44;100.00;100782.22;5020468;28;20487;-78
2022/11/24 07:28:35;;;;;;;9.30;1.60;;;;;;;6.44;100.00;100792.53;5013024;28;20109;-78
2022/11/24 07:31:08;;;;;;;7.80;1.90;;;;;;;6.46;100.00;100795.09;5012072;28;20060;-78
2022/11/24 07:33:33;;;;;;;7.22;1.48;;;;;;;6.49;100.00;100800.19;5008678;28;20030;-78
2022/11/24 07:36:00;;;;;;;10.77;1.70;;;;;;;6.51;100.00;100795.91;5013422;28;20048;-78
2022/11/24 07:38:25;;;;;;;7.28;1.60;;;;;;;6.51;100.00;100796.75;5010958;28;20037;-78
2022/11/24 07:40:50;;;;;;;7.05;1.45;;;;;;;6.54;100.00;100803.63;5013452;28;20416;-78
2022/11/24 07:43:15;;;;;;;5.45;1.50;;;;;;;6.60;100.00;100808.72;5013200;28;20523;-78
2022/11/24 07:45:41;;;;;;;8.52;1.95;;;;;;;6.63;100.00;100804.38;5012372;28;20528;-78
2022/11/24 07:48:06;;;;;;;6.45;1.60;;;;;;;6.61;100.00;100815.56;5011189;28;20094;-78
2022/11/24 07:50:31;;;;;;;12.02;2.08;;;;;;;6.50;100.00;100807.06;5013084;28;20021;-78
2022/11/24 07:53:03;;;;;;;5.82;1.55;;;;;;;6.51;100.00;100825.09;5011613;28;20522;-78
2022/11/24 07:55:29;;;;;;;5.82;1.30;;;;;;;6.51;100.00;100829.38;5010350;28;20057;-78
2022/11/24 07:57:58;;;;;;;7.38;1.73;;;;;;;6.54;100.00;100837.09;5011605;28;20120;-78
2022/11/24 08:00:23;;;;;;;10.13;1.73;;;;;;;6.57;100.00;100835.34;5012366;28;20029;-78
2022/11/24 08:02:49;;;;;;;10.73;1.50;;;;;;;6.58;100.00;100831.91;5010604;28;20030;-78
2022/11/24 08:05:14;;;;;;;9.07;1.63;;;;;;;6.54;100.00;100839.66;5012028;28;20125;-78
2022/11/24 08:07:39;;;;;;;7.78;1.40;;;;;;;6.45;100.00;100840.56;5010913;28;20465;-78
2022/11/24 08:10:05;;;;;;;9.82;1.38;;;;;;;6.36;100.00;100840.63;5012051;28;20026;-78
2022/11/24 08:12:31;;;;;;;10.48;1.58;;;;;;;6.32;100.00;100846.69;5011451;28;20447;-78
2022/11/24 08:14:56;;;;;;;8.27;1.80;;;;;;;6.27;100.00;100858.72;5009489;28;20488;-78
2022/11/24 08:17:21;;;;;;;9.98;1.80;;;;;;;6.26;100.00;100860.44;5009758;28;20033;-78
2022/11/24 08:19:46;;;;;;;12.10;1.73;;;;;;;6.25;100.00;100861.31;5010129;28;20057;-78
2022/11/24 08:22:12;;;;;;;9.98;1.88;;;;;;;6.22;100.00;100869.03;5011255;28;20137;-78
2022/11/24 08:24:37;;;;;;;12.07;2.38;;;;;;;6.20;100.00;100873.34;4994094;28;20060;-78
2022/11/24 08:27:03;;;;;;;9.73;1.60;;;;;;;6.20;100.00;100873.34;5012105;28;20018;-78
2022/11/24 08:29:29;;;;;;;10.77;1.75;;;;;;;6.21;100.00;100880.19;5011404;28;20065;-77
2022/11/24 08:31:57;;;;;;;11.82;1.70;;;;;;;6.21;100.00;100880.19;5011544;28;20030;-78
2022/11/24 08:34:24;;;;;;;10.57;1.95;;;;;;;6.23;100.00;100893.91;5009123;28;20492;-78
2022/11/24 08:36:50;;;;;;;9.18;1.60;;;;;;;6.26;100.00;100895.63;5011512;28;20083;-77
2022/11/24 08:39:15;;;;;;;10.88;2.05;;;;;;;6.26;100.00;100899.06;5011585;28;20030;-78
2022/11/24 08:41:41;;;;;;;12.75;1.90;;;;;;;6.26;100.00;100903.34;5010534;28;20468;-78
2022/11/24 08:44:08;;;;;;;8.23;1.73;;;;;;;6.30;100.00;100902.44;5011107;28;20034;-77
2022/11/24 08:46:33;;;;;;;13.52;2.00;;;;;;;6.29;100.00;100906.75;5010266;28;20030;-78
2022/11/24 08:48:58;;;;;;;11.35;1.70;;;;;;;6.30;100.00;100916.19;5010132;28;20100;-77
2022/11/24 08:51:25;;;;;;;7.82;1.70;;;;;;;6.30;100.00;100913.59;5009272;28;20041;-78
2022/11/24 08:53:59;;;;;;;8.18;1.80;;;;;;;6.31;100.00;100923.03;5008359;28;20109;-78
2022/11/24 08:56:26;;;;;;;11.00;2.70;;;;;;;6.30;100.00;100923.91;4990499;28;20021;-78
2022/11/24 08:58:52;;;;;;;11.48;2.10;;;;;;;6.33;100.00;100929.03;5009961;28;20439;-77
2022/11/24 09:01:18;;;;;;;11.38;2.00;;;;;;;6.38;100.00;100931.59;4987698;28;20026;-78
2022/11/24 09:03:46;;;;;;;11.35;1.85;;;;;;;6.41;100.00;100926.44;5009375;28;20048;-77
2022/11/24 09:06:12;;;;;;;11.30;1.67;;;;;;;6.40;100.00;100932.44;5009796;28;20050;-78
2022/11/24 09:08:37;;;;;;;9.15;2.00;;;;;;;6.42;100.00;100945.28;5010288;28;20048;-77
2022/11/24 09:11:10;;;;;;;11.38;2.00;;;;;;;6.44;100.00;100946.13;5010667;28;20018;-77
2022/11/24 09:13:37;;;;;;;10.65;2.00;;;;;;;6.46;100.00;100949.56;5009735;28;20203;-78
2022/11/24 09:16:07;;;;;;;13.68;2.13;;;;;;;6.48;100.00;100951.28;5010025;28;20029;-78
2022/11/24 09:18:33;;;;;;;13.60;2.35;;;;;;;6.51;100.00;100948.69;4990693;28;20030;-77
2022/11/24 09:21:16;;;;;;;11.48;2.25;;;;;;;6.52;100.00;100954.69;5010356;28;20041;-77
2022/11/24 09:23:42;;;;;;;11.38;2.53;;;;;;;6.54;100.00;100952.97;5007945;28;20076;-78
2022/11/24 09:26:14;;;;;;;13.45;2.20;;;;;;;6.56;100.00;100967.53;5010653;28;20030;-77
2022/11/24 09:28:40;;;;;;;10.75;2.05;;;;;;;6.56;100.00;100961.53;5010719;28;20026;-78
2022/11/24 09:31:09;;;;;;;11.43;2.08;;;;;;;6.61;100.00;100972.69;4998579;28;20029;-77
2022/11/24 09:33:35;;;;;;;13.02;2.45;;;;;;;6.63;100.00;100973.50;4991596;28;20022;-78
2022/11/24 09:36:01;;;;;;;10.05;1.90;;;;;;;6.64;100.00;100970.06;5010503;28;20506;-78
2022/11/24 09:38:27;;;;;;;10.05;2.10;;;;;;;6.67;100.00;100985.50;4994333;28;20534;-78
2022/11/24 09:40:53;;;;;;;11.38;2.30;;;;;;;6.69;100.00;100983.75;5008475;28;20038;-78
2022/11/24 09:43:37;;;;;;;11.10;2.50;;;;;;;6.72;100.00;100982.03;5009377;28;20472;-77
2022/11/24 09:46:26;;;;;;;11.32;2.40;;;;;;;6.75;100.00;100989.72;5009704;28;20026;-78
2022/11/24 09:48:55;;;;;;;11.05;2.20;;;;;;;6.78;100.00;100993.16;5009499;28;20052;-77
2022/11/24 09:51:27;;;;;;;14.95;2.53;;;;;;;6.78;100.00;100994.03;5006960;28;20025;-77
2022/11/24 09:54:03;;;;;;;13.75;3.00;;;;;;;6.83;100.00;101005.16;5008450;28;20095;-77
2022/11/24 09:56:33;;;;;;;12.55;2.40;;;;;;;6.86;100.00;101007.72;5005327;28;20026;-78
2022/11/24 09:59:09;;;;;;;12.70;2.70;;;;;;;6.88;100.00;101016.31;5006646;28;20038;-78
2022/11/24 10:01:39;;;;;;;16.42;2.88;;;;;;;6.90;100.00;101014.56;5007255;28;20629;-77
2022/11/24 10:04:15;;;;;;;16.83;2.67;;;;;;;6.93;100.00;101021.44;5009625;28;20381;-77
2022/11/24 10:06:50;;;;;;;15.35;2.92;;;;;;;6.95;100.00;101020.56;5008986;28;20164;-77
2022/11/24 10:09:37;;;;;;;10.73;2.42;;;;;;;6.97;100.00;101026.53;5009815;28;20038;-77
2022/11/24 10:12:21;;;;;;;19.50;3.10;;;;;;;7.01;100.00;101040.28;5007625;28;20112;-77
2022/11/24 10:15:18;;;;;;;17.35;3.15;;;;;;;7.05;100.00;101044.53;5004412;28;20118;-77
2022/11/24 10:17:57;;;;;;;14.80;2.90;;;;;;;7.09;100.00;101035.94;5009611;28;20034;-77
2022/11/24 10:20:22;;;;;;;13.40;2.70;;;;;;;7.12;100.00;101038.47;4999476;28;20033;-77
2022/11/24 10:23:09;;;;;;;19.55;3.03;;;;;;;7.16;100.00;101047.94;5009771;28;20037;-77
2022/11/24 10:25:59;;;;;;;17.63;2.80;;;;;;;7.19;100.00;101040.16;5007387;28;20061;-77
2022/11/24 10:28:39;;;;;;;12.07;2.60;;;;;;;7.22;100.00;101036.72;5007474;28;20150;-77
2022/11/24 10:31:33;;;;;;;18.13;2.80;;;;;;;7.26;100.00;101048.69;5007882;28;20022;-77
2022/11/24 10:34:21;;;;;;;16.23;2.75;;;;;;;7.28;100.00;101047.84;5008627;28;20041;-77
2022/11/24 10:37:04;;;;;;;11.82;2.67;;;;;;;7.32;100.00;101053.81;5009342;28;20111;-77
2022/11/24 10:39:40;;;;;;;17.90;2.50;;;;;;;7.33;100.00;101050.38;5005286;28;20040;-77
2022/11/24 10:42:14;;;;;;;15.75;3.00;;;;;;;7.40;100.00;101054.63;4995216;28;20177;-77
2022/11/24 10:44:41;;;;;;;12.10;2.58;;;;;;;7.45;100.00;101058.88;5007613;28;20018;-77
2022/11/24 10:47:17;;;;;;;15.35;2.55;;;;;;;7.51;100.00;101063.13;5003725;28;20176;-77
2022/11/24 10:50:02;;;;;;;16.60;2.83;;;;;;;7.57;100.00;101065.69;5010214;28;20018;-77
2022/11/24 10:52:31;;;;;;;19.90;3.20;;;;;;;7.63;100.00;101062.19;5013246;28;20030;-77
2022/11/24 10:55:00;;;;;;;22.02;3.38;;;;;;;7.69;100.00;101065.56;5012308;28;20045;-76
2022/11/24 10:57:33;;;;;;;16.70;2.45;;;;;;;7.72;100.00;101060.38;5010178;28;20048;-76
2022/11/24 11:00:00;;;;;;;16.80;3.10;;;;;;;7.76;100.00;101056.91;5011887;28;20049;-77
2022/11/24 11:02:29;;;;;;;19.83;3.22;;;;;;;7.79;100.00;101058.59;5008309;28;20105;-77
2022/11/24 11:04:54;;;;;;;13.57;3.00;;;;;;;7.84;100.00;101065.44;4995730;28;20431;-77
2022/11/24 11:07:23;;;;;;;21.30;2.80;;;;;;;7.88;100.00;101071.41;5012531;28;20559;-77
2022/11/24 11:09:50;;;;;;;20.33;2.97;;;;;;;7.90;100.00;101057.66;5013120;28;20244;-77
2022/11/24 11:12:26;;;;;;;13.65;2.47;;;;;;;7.96;100.00;101058.44;5010731;28;20030;-77
2022/11/24 11:14:51;;;;;;;20.98;2.58;;;;;;;7.98;100.00;101057.56;5013363;28;20053;-77
2022/11/24 11:17:37;;;;;;;15.18;2.42;;;;;;;7.97;100.00;101045.53;5011807;28;20080;-77
2022/11/24 11:20:15;;;;;;;18.05;2.95;;;;;;;8.04;100.00;101049.78;5013082;28;20057;-77
2022/11/24 11:22:43;;;;;;;11.90;2.53;;;;;;;8.08;100.00;101059.19;5011235;28;20548;-76